createdAt,value
2017-11-30T00:00:40.335Z,56.15
2017-11-30T00:03:08.684Z,62.00
2017-11-30T00:05:37.242Z,53.95
2017-11-30T00:08:06.338Z,60.17
2017-11-30T00:10:34.689Z,57.08
2017-11-30T00:13:03.046Z,57.78
2017-11-30T00:15:31.373Z,56.67
2017-11-30T00:17:59.712Z,64.78
2017-11-30T00:20:28.090Z,60.05
2017-11-30T00:22:56.456Z,59.17
2017-11-30T00:25:24.830Z,62.80
2017-11-30T00:27:54.042Z,59.33
2017-11-30T00:30:22.359Z,65.43
2017-11-30T00:32:50.697Z,59.88
2017-11-30T00:35:19.853Z,64.28
2017-11-30T00:37:48.214Z,66.68
2017-11-30T00:40:16.561Z,64.85
2017-11-30T00:43:02.936Z,61.85
2017-11-30T00:45:32.056Z,55.15
2017-11-30T00:48:01.132Z,57.17
2017-11-30T00:50:30.285Z,53.87
2017-11-30T00:52:58.588Z,57.42
2017-11-30T00:55:26.890Z,70.70
2017-11-30T00:57:56.002Z,68.47
2017-11-30T01:00:25.061Z,60.72
2017-11-30T01:02:53.397Z,57.70
2017-11-30T01:05:22.202Z,59.42
2017-11-30T01:07:50.518Z,57.08
2017-11-30T01:10:19.637Z,53.05
2017-11-30T01:12:48.034Z,54.03
2017-11-30T01:15:16.425Z,59.65
2017-11-30T01:17:44.754Z,57.45
2017-11-30T01:20:13.904Z,57.38
2017-11-30T01:22:42.218Z,51.80
2017-11-30T01:25:10.530Z,58.58
2017-11-30T01:27:38.985Z,58.17
2017-11-30T01:30:08.078Z,57.92
2017-11-30T01:32:37.193Z,57.17
2017-11-30T01:35:05.574Z,56.10
2017-11-30T01:37:33.912Z,56.60
2017-11-30T01:40:03.044Z,52.28
2017-11-30T01:42:32.179Z,55.30
2017-11-30T01:45:00.505Z,58.00
2017-11-30T01:47:29.590Z,52.95
2017-11-30T01:49:58.060Z,51.80
2017-11-30T01:52:26.388Z,60.42
2017-11-30T01:54:54.712Z,48.17
2017-11-30T01:57:23.061Z,53.03
2017-11-30T01:59:51.438Z,52.53
2017-11-30T02:02:19.774Z,56.53
2017-11-30T02:04:48.893Z,59.50
2017-11-30T02:07:17.227Z,59.78
2017-11-30T02:09:45.533Z,60.60
2017-11-30T02:12:15.177Z,62.17
2017-11-30T02:14:43.501Z,61.13
2017-11-30T02:17:11.834Z,64.62
2017-11-30T02:19:40.173Z,62.42
2017-11-30T02:22:09.264Z,61.30
2017-11-30T02:24:38.377Z,67.95
2017-11-30T02:27:06.749Z,63.17
2017-11-30T02:29:35.085Z,62.85
2017-11-30T02:32:03.406Z,63.22
2017-11-30T02:34:32.994Z,57.25
2017-11-30T02:37:01.305Z,69.05
2017-11-30T02:39:29.618Z,61.80
2017-11-30T02:41:57.986Z,62.58
2017-11-30T02:44:26.315Z,67.15
2017-11-30T02:46:54.646Z,65.43
2017-11-30T02:49:23.012Z,64.70
2017-11-30T02:51:51.355Z,66.65
2017-11-30T02:54:19.685Z,59.00
2017-11-30T02:56:48.351Z,60.05
2017-11-30T02:59:16.648Z,58.95
2017-11-30T03:01:45.005Z,69.93
2017-11-30T03:04:13.338Z,67.68
2017-11-30T03:06:41.650Z,57.67
2017-11-30T03:09:10.743Z,64.75
2017-11-30T03:11:39.115Z,67.55
2017-11-30T03:14:08.193Z,59.13
2017-11-30T03:16:37.278Z,59.55
2017-11-30T03:19:05.827Z,57.72
2017-11-30T03:21:34.152Z,63.70
2017-11-30T03:24:02.478Z,65.53
2017-11-30T03:26:30.946Z,75.18
2017-11-30T03:28:59.277Z,70.50
2017-11-30T03:31:27.579Z,58.15
2017-11-30T03:33:55.925Z,75.05
2017-11-30T03:36:24.268Z,71.00
2017-11-30T03:38:52.649Z,72.97
2017-11-30T03:41:21.334Z,67.45
2017-11-30T03:43:49.747Z,76.32
2017-11-30T03:46:18.088Z,65.53
2017-11-30T03:48:46.433Z,64.40
2017-11-30T03:51:14.746Z,68.45
2017-11-30T03:53:43.061Z,67.28
2017-11-30T03:56:11.398Z,68.28
2017-11-30T03:58:39.698Z,69.72
2017-11-30T04:01:08.015Z,74.68
2017-11-30T04:03:36.634Z,80.10
2017-11-30T04:06:05.701Z,74.55
2017-11-30T04:08:34.053Z,67.68
2017-11-30T04:11:02.406Z,63.35
2017-11-30T04:13:30.772Z,60.47
2017-11-30T04:15:59.078Z,69.28
2017-11-30T04:18:27.427Z,63.10
2017-11-30T04:20:55.770Z,72.82
2017-11-30T04:23:24.897Z,63.15
2017-11-30T04:25:53.509Z,64.55
2017-11-30T04:28:21.834Z,55.88
2017-11-30T04:30:50.961Z,59.97
2017-11-30T04:33:19.333Z,68.32
2017-11-30T04:35:47.681Z,60.60
2017-11-30T04:38:16.016Z,64.95
2017-11-30T04:40:44.366Z,67.30
2017-11-30T04:43:12.740Z,58.97
2017-11-30T04:45:41.877Z,72.53
2017-11-30T04:48:10.458Z,58.40
2017-11-30T04:50:38.802Z,60.88
2017-11-30T04:53:07.903Z,68.60
2017-11-30T04:55:36.245Z,63.15
2017-11-30T04:58:04.683Z,69.12
2017-11-30T05:00:33.030Z,65.03
2017-11-30T05:03:01.374Z,61.85
2017-11-30T05:05:30.462Z,70.70
2017-11-30T05:07:58.819Z,69.30
2017-11-30T05:10:27.299Z,72.15
2017-11-30T05:12:55.592Z,74.75
2017-11-30T05:15:23.953Z,88.97
2017-11-30T05:17:52.533Z,70.68
2017-11-30T05:20:20.872Z,70.00
2017-11-30T05:22:49.186Z,71.57
2017-11-30T05:25:17.628Z,80.22
2017-11-30T05:27:45.955Z,77.47
2017-11-30T05:30:14.281Z,78.12
2017-11-30T05:32:43.338Z,75.30
2017-11-30T05:35:11.659Z,82.57
2017-11-30T05:37:40.269Z,85.87
2017-11-30T05:40:09.403Z,74.37
2017-11-30T05:42:38.486Z,76.62
2017-11-30T05:45:06.885Z,67.97
2017-11-30T05:47:35.233Z,64.45
2017-11-30T05:50:03.550Z,74.35
2017-11-30T05:52:31.906Z,63.50
2017-11-30T05:55:00.429Z,77.80
2017-11-30T05:57:28.805Z,77.75
2017-11-30T05:59:57.134Z,72.43
2017-11-30T06:02:25.501Z,62.03
2017-11-30T06:04:53.830Z,77.55
2017-11-30T06:07:22.146Z,78.87
2017-11-30T06:09:51.282Z,61.95
2017-11-30T06:12:19.695Z,63.85
2017-11-30T06:14:48.031Z,56.30
2017-11-30T06:17:16.554Z,56.03
2017-11-30T06:19:44.920Z,67.22
2017-11-30T06:22:13.271Z,69.80
2017-11-30T06:24:41.646Z,64.30
2017-11-30T06:27:09.963Z,64.00
2017-11-30T06:29:38.299Z,60.53
2017-11-30T06:32:06.647Z,63.40
2017-11-30T06:34:35.750Z,67.62
2017-11-30T06:37:04.097Z,67.55
2017-11-30T06:39:32.777Z,71.97
2017-11-30T06:42:01.118Z,76.20
2017-11-30T06:44:29.429Z,63.72
2017-11-30T06:46:57.771Z,66.70
2017-11-30T06:49:26.086Z,67.15
2017-11-30T06:51:54.451Z,68.57
2017-11-30T06:54:22.826Z,59.03
2017-11-30T06:56:51.180Z,68.05
2017-11-30T06:59:19.510Z,77.97
2017-11-30T07:01:48.155Z,81.57
2017-11-30T07:04:16.502Z,86.03
2017-11-30T07:06:44.848Z,90.57
2017-11-30T07:09:13.182Z,83.80
2017-11-30T07:11:41.559Z,102.12
2017-11-30T07:14:09.874Z,111.82
2017-11-30T07:16:38.218Z,106.43
2017-11-30T07:19:06.552Z,106.37
2017-11-30T07:21:34.870Z,116.78
2017-11-30T07:24:03.698Z,104.45
2017-11-30T07:26:32.007Z,131.40
2017-11-30T07:29:00.356Z,136.55
2017-11-30T07:31:28.683Z,127.80
2017-11-30T07:33:57.771Z,142.37
2017-11-30T07:36:26.109Z,135.57
2017-11-30T07:38:54.524Z,145.93
2017-11-30T07:41:23.612Z,154.00
2017-11-30T07:43:51.965Z,156.15
2017-11-30T07:46:20.703Z,148.07
2017-11-30T07:48:49.069Z,140.20
2017-11-30T07:51:18.201Z,137.88
2017-11-30T07:53:46.548Z,138.82
2017-11-30T07:56:15.695Z,139.75
2017-11-30T07:58:44.050Z,143.77
2017-11-30T08:01:12.437Z,130.12
2017-11-30T08:03:40.784Z,109.55
2017-11-30T08:06:09.881Z,114.07
2017-11-30T08:08:39.338Z,107.03
2017-11-30T08:11:07.681Z,97.18
2017-11-30T08:13:36.010Z,100.82
2017-11-30T08:16:04.369Z,112.57
2017-11-30T08:18:32.710Z,97.62
2017-11-30T08:21:01.026Z,111.07
2017-11-30T08:23:29.380Z,111.65
2017-11-30T08:25:57.710Z,106.18
2017-11-30T08:28:26.065Z,117.05
2017-11-30T08:30:54.780Z,101.00
2017-11-30T08:33:23.911Z,101.97
2017-11-30T08:35:52.290Z,87.70
2017-11-30T08:38:20.671Z,104.03
2017-11-30T08:40:49.010Z,91.43
2017-11-30T08:43:17.324Z,102.35
2017-11-30T08:45:45.692Z,101.62
2017-11-30T08:48:14.006Z,96.65
2017-11-30T08:50:42.314Z,83.07
2017-11-30T08:53:11.072Z,78.43
2017-11-30T08:55:39.413Z,74.55
2017-11-30T08:58:08.561Z,70.97
2017-11-30T09:00:37.667Z,63.72
2017-11-30T09:03:06.017Z,67.93
2017-11-30T09:05:34.369Z,74.37
2017-11-30T09:08:03.492Z,60.97
2017-11-30T09:10:31.805Z,64.68
2017-11-30T09:13:00.186Z,57.72
2017-11-30T09:15:28.916Z,62.22
2017-11-30T09:17:57.221Z,62.40
2017-11-30T09:20:25.549Z,62.25
2017-11-30T09:22:54.674Z,64.75
2017-11-30T09:25:23.006Z,67.62
2017-11-30T09:27:51.308Z,59.80
2017-11-30T09:30:20.407Z,60.00
2017-11-30T09:32:48.734Z,62.53
2017-11-30T09:35:17.087Z,65.28
2017-11-30T09:37:45.507Z,61.45
2017-11-30T09:40:13.809Z,62.95
2017-11-30T09:42:42.927Z,56.67
2017-11-30T09:45:12.054Z,59.50
2017-11-30T09:47:40.406Z,57.40
2017-11-30T09:50:08.750Z,57.80
2017-11-30T09:52:37.881Z,53.15
2017-11-30T09:55:06.215Z,49.58
2017-11-30T09:57:34.523Z,58.42
2017-11-30T10:00:03.118Z,52.53
2017-11-30T10:02:32.203Z,49.45
2017-11-30T10:05:01.309Z,50.85
2017-11-30T10:07:29.678Z,52.53
2017-11-30T10:09:58.006Z,56.13
2017-11-30T10:12:26.337Z,60.28
2017-11-30T10:14:55.478Z,62.58
2017-11-30T10:17:23.893Z,62.85
2017-11-30T10:19:53.025Z,57.83
2017-11-30T10:22:21.804Z,66.43
2017-11-30T10:24:50.145Z,57.65
2017-11-30T10:27:18.492Z,55.15
2017-11-30T10:29:46.873Z,57.40
2017-11-30T10:32:15.205Z,61.45
2017-11-30T10:34:44.316Z,65.47
2017-11-30T10:37:12.684Z,59.80
2017-11-30T10:39:40.992Z,70.25
2017-11-30T10:42:09.308Z,53.50
2017-11-30T10:44:37.713Z,61.83
2017-11-30T10:47:06.090Z,52.88
2017-11-30T10:49:34.411Z,74.47
2017-11-30T10:52:02.773Z,52.78
2017-11-30T10:54:31.099Z,61.03
2017-11-30T10:56:59.445Z,65.25
2017-11-30T10:59:27.783Z,66.35
2017-11-30T11:01:56.109Z,63.87
2017-11-30T11:04:24.591Z,63.42
2017-11-30T11:06:53.095Z,64.47
2017-11-30T11:09:21.392Z,61.33
2017-11-30T11:11:49.726Z,47.42
2017-11-30T11:14:18.095Z,54.50
2017-11-30T11:16:46.433Z,55.80
2017-11-30T11:19:14.776Z,49.55
2017-11-30T11:21:43.158Z,64.47
2017-11-30T11:24:11.509Z,61.08
2017-11-30T11:26:39.822Z,58.97
2017-11-30T11:29:08.482Z,59.83
2017-11-30T11:31:36.813Z,55.90
2017-11-30T11:34:05.161Z,54.13
2017-11-30T11:36:33.532Z,59.55
2017-11-30T11:39:01.865Z,52.13
2017-11-30T11:41:30.988Z,45.03
2017-11-30T11:44:00.102Z,49.00
2017-11-30T11:46:28.470Z,46.58
2017-11-30T11:48:56.829Z,56.42
2017-11-30T11:51:25.552Z,53.40
2017-11-30T11:53:53.872Z,54.85
2017-11-30T11:56:22.963Z,51.17
2017-11-30T11:58:51.363Z,52.92
2017-11-30T12:01:19.895Z,50.72
2017-11-30T12:03:48.227Z,46.90
2017-11-30T12:06:17.361Z,53.60
2017-11-30T12:08:45.703Z,45.10
2017-11-30T12:11:14.801Z,54.22
2017-11-30T12:13:43.488Z,53.90
2017-11-30T12:16:11.913Z,58.10
2017-11-30T12:18:40.252Z,59.28
2017-11-30T12:21:09.377Z,60.22
2017-11-30T12:23:37.714Z,62.85
2017-11-30T12:26:06.821Z,54.65
2017-11-30T12:28:35.953Z,53.47
2017-11-30T12:31:04.293Z,63.08
2017-11-30T12:33:33.420Z,54.65
2017-11-30T12:36:01.941Z,50.15
2017-11-30T12:38:31.031Z,46.80
2017-11-30T12:41:00.162Z,50.08
2017-11-30T12:43:29.306Z,59.33
2017-11-30T12:45:57.621Z,57.70
2017-11-30T12:48:26.735Z,58.47
2017-11-30T12:50:55.898Z,58.72
2017-11-30T12:53:24.275Z,59.65
2017-11-30T12:55:52.620Z,57.50
2017-11-30T12:58:21.031Z,57.38
2017-11-30T13:00:49.378Z,59.85
2017-11-30T13:03:17.718Z,52.90
2017-11-30T13:05:46.865Z,61.37
2017-11-30T13:08:15.179Z,51.47
2017-11-30T13:10:43.505Z,57.25
2017-11-30T13:13:11.861Z,56.30
2017-11-30T13:15:40.980Z,58.97
2017-11-30T13:18:09.303Z,52.65
2017-11-30T13:20:37.743Z,49.00
2017-11-30T13:23:06.136Z,51.28
2017-11-30T13:25:34.476Z,50.67
2017-11-30T13:28:02.829Z,49.33
2017-11-30T13:30:31.162Z,51.40
2017-11-30T13:32:59.479Z,55.80
2017-11-30T13:35:27.822Z,59.47
2017-11-30T13:37:56.164Z,58.72
2017-11-30T13:40:26.315Z,63.60
2017-11-30T13:42:54.748Z,64.95
2017-11-30T13:45:23.177Z,65.07
2017-11-30T13:47:51.502Z,61.95
2017-11-30T13:50:19.931Z,68.87
2017-11-30T13:52:48.326Z,62.83
2017-11-30T13:55:16.703Z,58.45
2017-11-30T13:57:45.079Z,57.35
2017-11-30T14:00:13.394Z,61.37
2017-11-30T14:02:41.687Z,58.65
2017-11-30T14:05:10.893Z,64.70
2017-11-30T14:07:39.987Z,54.72
2017-11-30T14:10:08.335Z,64.47
2017-11-30T14:12:36.664Z,62.22
2017-11-30T14:15:04.996Z,53.08
2017-11-30T14:17:33.335Z,62.40
2017-11-30T14:20:01.663Z,58.00
2017-11-30T14:22:29.985Z,58.80
2017-11-30T14:24:58.301Z,61.42
2017-11-30T14:27:27.581Z,66.12
2017-11-30T14:29:55.910Z,80.78
2017-11-30T14:32:24.997Z,63.72
2017-11-30T14:34:53.344Z,67.03
2017-11-30T14:37:21.688Z,74.53
2017-11-30T14:39:50.051Z,64.40
2017-11-30T14:42:18.413Z,66.78
2017-11-30T14:44:47.505Z,68.62
2017-11-30T14:47:16.052Z,68.78
2017-11-30T14:49:45.028Z,66.65
2017-11-30T14:52:13.348Z,61.67
2017-11-30T14:54:41.673Z,70.95
2017-11-30T14:57:10.104Z,67.87
2017-11-30T14:59:38.431Z,80.15
2017-11-30T15:02:06.890Z,68.87
2017-11-30T15:04:35.982Z,76.05
2017-11-30T15:07:05.056Z,71.12
2017-11-30T15:09:33.408Z,69.07
2017-11-30T15:12:01.956Z,65.40
2017-11-30T15:14:30.295Z,63.50
2017-11-30T15:16:58.667Z,66.90
2017-11-30T15:19:27.025Z,68.00
2017-11-30T15:21:55.346Z,70.37
2017-11-30T15:24:23.661Z,72.07
2017-11-30T15:26:52.939Z,65.53
2017-11-30T15:29:22.045Z,70.18
2017-11-30T15:31:50.370Z,64.47
2017-11-30T15:34:18.810Z,70.75
2017-11-30T15:36:47.134Z,65.90
2017-11-30T15:39:15.475Z,61.05
2017-11-30T15:41:43.796Z,69.62
2017-11-30T15:44:12.124Z,76.85
2017-11-30T15:46:40.466Z,74.50
2017-11-30T15:49:08.789Z,68.72
2017-11-30T15:51:37.134Z,65.78
2017-11-30T15:54:05.571Z,75.37
2017-11-30T15:56:33.950Z,66.22
2017-11-30T15:59:02.362Z,74.25
2017-11-30T16:01:31.491Z,63.87
2017-11-30T16:03:59.866Z,73.55
2017-11-30T16:06:28.199Z,71.30
2017-11-30T16:08:56.520Z,85.32
2017-11-30T16:11:24.946Z,78.47
2017-11-30T16:13:53.242Z,78.87
2017-11-30T16:16:21.606Z,75.22
2017-11-30T16:18:50.072Z,76.22
2017-11-30T16:21:18.524Z,75.35
2017-11-30T16:23:46.832Z,72.30
2017-11-30T16:26:15.175Z,73.18
2017-11-30T16:28:43.485Z,76.65
2017-11-30T16:31:11.851Z,72.55
2017-11-30T16:33:40.212Z,83.60
2017-11-30T16:36:09.299Z,74.40
2017-11-30T16:38:37.620Z,70.45
2017-11-30T16:41:06.025Z,72.50
2017-11-30T16:43:34.349Z,78.00
2017-11-30T16:46:02.667Z,80.68
2017-11-30T16:48:31.070Z,71.12
2017-11-30T16:50:59.424Z,71.37
2017-11-30T16:53:27.709Z,71.32
2017-11-30T16:55:56.061Z,70.47
2017-11-30T16:58:24.440Z,63.63
2017-11-30T17:00:52.747Z,70.25
2017-11-30T17:03:21.950Z,64.62
2017-11-30T17:05:50.324Z,69.15
2017-11-30T17:08:18.668Z,72.03
2017-11-30T17:10:47.059Z,63.92
2017-11-30T17:13:15.395Z,63.03
2017-11-30T17:15:44.488Z,59.55
2017-11-30T17:18:12.938Z,65.18
2017-11-30T17:20:41.277Z,60.65
2017-11-30T17:23:09.573Z,68.85
2017-11-30T17:25:38.547Z,63.60
2017-11-30T17:28:06.888Z,70.72
2017-11-30T17:30:35.339Z,83.07
2017-11-30T17:33:03.799Z,95.65
2017-11-30T17:35:32.145Z,73.12
2017-11-30T17:38:01.258Z,74.68
2017-11-30T17:40:29.634Z,72.90
2017-11-30T17:42:57.954Z,73.40
2017-11-30T17:45:26.281Z,85.82
2017-11-30T17:47:54.928Z,85.53
2017-11-30T17:50:24.032Z,80.07
2017-11-30T17:52:52.348Z,100.68
2017-11-30T17:55:20.730Z,86.87
2017-11-30T17:57:49.047Z,100.85
2017-11-30T18:00:17.493Z,87.20
2017-11-30T18:02:46.174Z,96.47
2017-11-30T18:05:14.508Z,89.20
2017-11-30T18:07:42.873Z,89.30
2017-11-30T18:10:11.614Z,86.20
2017-11-30T18:12:40.025Z,83.93
2017-11-30T18:15:08.389Z,89.35
2017-11-30T18:17:36.751Z,80.38
2017-11-30T18:20:05.848Z,88.32
2017-11-30T18:22:34.203Z,72.80
2017-11-30T18:25:02.680Z,90.78
2017-11-30T18:27:31.758Z,94.70
2017-11-30T18:30:00.070Z,98.70
2017-11-30T18:32:29.520Z,89.47
2017-11-30T18:34:57.873Z,89.13
2017-11-30T18:37:26.201Z,79.90
2017-11-30T18:39:54.861Z,84.25
2017-11-30T18:42:23.191Z,70.47
2017-11-30T18:44:52.449Z,75.03
2017-11-30T18:47:21.288Z,70.00
2017-11-30T18:49:49.632Z,72.78
2017-11-30T18:52:18.010Z,80.65
2017-11-30T18:54:46.420Z,69.87
2017-11-30T18:57:15.527Z,78.35
2017-11-30T18:59:44.789Z,76.32
2017-11-30T19:02:14.125Z,75.93
2017-11-30T19:04:43.228Z,71.57
2017-11-30T19:07:12.308Z,65.57
2017-11-30T19:09:40.700Z,72.53
2017-11-30T19:12:09.823Z,75.72
2017-11-30T19:14:38.160Z,62.97
2017-11-30T19:17:06.709Z,68.05
2017-11-30T19:19:35.041Z,68.80
2017-11-30T19:22:03.407Z,69.85
2017-11-30T19:24:32.530Z,65.82
2017-11-30T19:27:00.841Z,68.18
2017-11-30T19:29:29.197Z,79.22
2017-11-30T19:31:57.545Z,69.93
2017-11-30T19:34:26.629Z,68.72
2017-11-30T19:36:55.727Z,61.25
2017-11-30T19:39:24.920Z,71.10
2017-11-30T19:41:54.848Z,62.92
2017-11-30T19:44:23.167Z,63.03
2017-11-30T19:46:51.556Z,65.97
2017-11-30T19:49:19.905Z,66.12
2017-11-30T19:51:49.118Z,67.55
2017-11-30T19:54:18.184Z,76.15
2017-11-30T19:56:47.292Z,67.57
2017-11-30T19:59:16.416Z,70.43
2017-11-30T20:01:45.156Z,59.85
2017-11-30T20:04:13.476Z,66.93
2017-11-30T20:06:41.828Z,65.40
2017-11-30T20:09:10.247Z,58.65
2017-11-30T20:11:38.578Z,60.78
2017-11-30T20:14:07.666Z,61.92
2017-11-30T20:16:36.873Z,54.65
2017-11-30T20:19:05.185Z,66.82
2017-11-30T20:21:33.537Z,66.60
2017-11-30T20:24:02.111Z,62.65
2017-11-30T20:26:30.460Z,65.97
2017-11-30T20:28:58.822Z,54.60
2017-11-30T20:31:27.152Z,58.03
2017-11-30T20:33:55.497Z,68.65
2017-11-30T20:36:23.838Z,62.22
2017-11-30T20:38:52.185Z,66.55
2017-11-30T20:41:20.589Z,54.95
2017-11-30T20:43:48.973Z,58.50
2017-11-30T20:46:17.393Z,60.72
2017-11-30T20:48:45.736Z,55.42
2017-11-30T20:51:14.077Z,54.28
2017-11-30T20:53:43.193Z,59.92
2017-11-30T20:56:11.580Z,68.00
2017-11-30T20:58:39.939Z,57.05
2017-11-30T21:01:08.373Z,64.45
2017-11-30T21:03:36.724Z,61.55
2017-11-30T21:06:05.071Z,66.22
2017-11-30T21:08:33.768Z,65.82
2017-11-30T21:11:02.124Z,61.42
2017-11-30T21:13:31.194Z,58.72
2017-11-30T21:15:59.558Z,56.03
2017-11-30T21:18:27.884Z,65.60
2017-11-30T21:20:56.224Z,60.53
2017-11-30T21:23:24.590Z,58.72
2017-11-30T21:25:52.945Z,55.95
2017-11-30T21:28:21.332Z,57.03
2017-11-30T21:30:50.130Z,60.85
2017-11-30T21:33:18.487Z,58.97
2017-11-30T21:35:46.903Z,67.70
2017-11-30T21:38:15.282Z,63.58
2017-11-30T21:40:43.657Z,57.47
2017-11-30T21:43:11.995Z,51.22
2017-11-30T21:45:41.099Z,62.62
2017-11-30T21:48:09.430Z,55.63
2017-11-30T21:50:37.779Z,65.47
2017-11-30T21:53:06.806Z,57.60
2017-11-30T21:55:35.154Z,64.25
2017-11-30T21:58:03.501Z,52.22
2017-11-30T22:00:31.947Z,54.85
2017-11-30T22:03:01.164Z,59.28
2017-11-30T22:05:29.550Z,54.15
2017-11-30T22:07:57.989Z,59.92
2017-11-30T22:10:26.362Z,63.72
2017-11-30T22:12:54.710Z,65.12
2017-11-30T22:15:23.150Z,64.35
2017-11-30T22:17:51.512Z,64.25
2017-11-30T22:20:19.830Z,59.55
2017-11-30T22:22:48.940Z,61.75
2017-11-30T22:25:17.309Z,73.87
2017-11-30T22:27:45.658Z,59.25
2017-11-30T22:30:14.158Z,58.42
2017-11-30T22:32:43.273Z,65.00
2017-11-30T22:35:11.616Z,61.60
2017-11-30T22:37:40.015Z,70.20
2017-11-30T22:40:09.102Z,63.90
2017-11-30T22:42:38.323Z,63.20
2017-11-30T22:45:06.686Z,72.07
2017-11-30T22:47:35.844Z,61.35
2017-11-30T22:50:04.141Z,60.45
2017-11-30T22:52:32.496Z,57.05
2017-11-30T22:55:00.847Z,59.83
2017-11-30T22:57:29.256Z,77.57
2017-11-30T22:59:57.790Z,58.17
2017-11-30T23:02:26.914Z,60.92
2017-11-30T23:04:55.240Z,60.70
2017-11-30T23:07:23.598Z,65.20
2017-11-30T23:09:51.953Z,68.85
2017-11-30T23:12:20.361Z,64.37
2017-11-30T23:14:48.733Z,70.43
2017-11-30T23:17:17.067Z,62.33
2017-11-30T23:19:45.403Z,67.12
2017-11-30T23:22:14.140Z,62.92
2017-11-30T23:24:42.473Z,61.30
2017-11-30T23:27:10.851Z,60.55
2017-11-30T23:29:39.174Z,72.85
2017-11-30T23:32:08.249Z,75.78
2017-11-30T23:34:37.332Z,85.80
2017-11-30T23:37:05.702Z,72.65
2017-11-30T23:39:34.025Z,79.75
2017-11-30T23:42:02.385Z,68.15
2017-11-30T23:44:30.921Z,71.15
2017-11-30T23:46:59.264Z,80.15
2017-11-30T23:49:27.592Z,69.25
2017-11-30T23:51:56.741Z,84.28
2017-11-30T23:54:25.844Z,80.32
2017-11-30T23:56:54.192Z,71.82
2017-11-30T23:59:22.558Z,74.53
